Time;durP1;ratioP1;P1;durP2;ratioP2;P2;SDS_P1;SDS_P2;PMS_P1;PMS_P2;Temp;Humidity;BMP_temperature;BMP_pressure;BME280_temperature;BME280_humidity;BME280_pressure;Samples;Min_cycle;Max_cycle;Signal;HPM_P1;HPM_P2
2023/07/12 00:01:39;;;;;;;5.80;4.40;;;;;;;15.24;79.49;100298.98;102631;279;120041;-56
2023/07/12 00:04:22;;;;;;;4.80;4.20;;;;;;;15.23;79.58;100295.02;102558;279;104966;-56
2023/07/12 00:07:01;;;;;;;5.70;4.30;;;;;;;15.20;79.56;100298.09;102519;279;114358;-57
2023/07/12 00:09:40;;;;;;;7.50;4.60;;;;;;;15.16;79.88;100302.52;102270;279;96364;-56
2023/07/12 00:12:20;;;;;;;7.20;4.20;;;;;;;15.14;79.90;100303.50;102538;279;98489;-56
2023/07/12 00:14:55;;;;;;;7.60;4.10;;;;;;;15.12;79.98;100304.55;102511;279;119968;-57
2023/07/12 00:17:32;;;;;;;5.20;4.20;;;;;;;15.07;80.08;100311.63;102532;267;104438;-56
2023/07/12 00:20:17;;;;;;;8.20;4.30;;;;;;;15.05;80.26;100321.31;102464;279;114175;-56
2023/07/12 00:22:58;;;;;;;6.10;4.50;;;;;;;15.05;80.41;100326.46;102469;279;95826;-56
2023/07/12 00:25:43;;;;;;;4.80;3.90;;;;;;;15.04;80.58;100328.64;102558;279;97429;-57
2023/07/12 00:28:29;;;;;;;7.70;4.30;;;;;;;14.99;80.60;100329.27;102475;279;121221;-58
2023/07/12 00:31:10;;;;;;;8.50;4.30;;;;;;;14.95;80.73;100331.52;102525;279;105229;-57
2023/07/12 00:33:58;;;;;;;6.70;4.30;;;;;;;14.94;80.74;100332.27;102492;279;116052;-57
2023/07/12 00:36:40;;;;;;;8.40;4.20;;;;;;;14.93;80.85;100334.17;102534;279;96438;-56
2023/07/12 00:39:18;;;;;;;6.10;4.30;;;;;;;14.92;80.98;100337.64;102553;279;98364;-56
2023/07/12 00:42:05;;;;;;;6.30;4.40;;;;;;;14.91;80.85;100339.37;102324;280;120734;-58
2023/07/12 00:44:50;;;;;;;7.20;4.60;;;;;;;14.90;81.08;100339.66;102550;279;106016;-57
2023/07/12 00:47:34;;;;;;;6.10;4.30;;;;;;;14.88;81.06;100338.54;102549;279;114428;-54
2023/07/12 00:50:25;;;;;;;7.10;4.90;;;;;;;14.85;81.17;100322.63;102558;279;97887;-54
2023/07/12 00:53:02;;;;;;;7.30;4.90;;;;;;;14.82;81.28;100313.27;102518;279;98242;-55
2023/07/12 00:56:05;;;;;;;5.30;4.40;;;;;;;14.81;81.26;100306.99;102593;267;120406;-56
2023/07/12 00:58:46;;;;;;;8.10;4.40;;;;;;;14.81;81.49;100304.61;102571;279;105626;-58
2023/07/12 01:01:26;;;;;;;6.90;4.20;;;;;;;14.79;81.59;100302.61;102553;279;115022;-57
2023/07/12 01:04:10;;;;;;;5.70;4.40;;;;;;;14.78;81.77;100301.70;102289;280;97441;-58
2023/07/12 01:06:50;;;;;;;5.90;4.70;;;;;;;14.78;81.94;100297.02;102552;279;97215;-57
2023/07/12 01:09:26;;;;;;;7.60;4.60;;;;;;;14.78;81.82;100293.12;102515;279;120360;-57
2023/07/12 01:12:06;;;;;;;5.20;4.60;;;;;;;14.77;81.95;100287.90;102509;279;104866;-56
2023/07/12 01:14:43;;;;;;;6.60;4.90;;;;;;;14.80;82.24;100289.84;102440;279;114545;-56
2023/07/12 01:17:26;;;;;;;7.40;4.80;;;;;;;14.83;82.21;100294.84;102487;279;94963;-57
2023/07/12 01:20:04;;;;;;;6.60;5.00;;;;;;;14.82;82.43;100287.71;102434;279;97736;-58
2023/07/12 01:22:43;;;;;;;6.90;5.00;;;;;;;14.84;82.34;100284.98;102424;279;120908;-56
2023/07/12 01:25:37;;;;;;;6.20;4.40;;;;;;;14.82;82.34;100292.46;102431;279;105040;-57
2023/07/12 01:28:21;;;;;;;5.70;4.40;;;;;;;14.83;82.57;100293.15;102413;279;116800;-57
2023/07/12 01:31:05;;;;;;;5.90;4.50;;;;;;;14.78;82.79;100285.92;102427;279;95167;-56
2023/07/12 01:33:47;;;;;;;5.60;4.60;;;;;;;14.78;82.76;100285.59;102386;279;96684;-56
2023/07/12 01:36:28;;;;;;;6.20;4.40;;;;;;;14.75;82.75;100281.48;102417;279;120032;-55
2023/07/12 01:39:05;;;;;;;9.40;5.40;;;;;;;14.76;82.99;100277.52;102407;279;104199;-56
2023/07/12 01:41:45;;;;;;;6.90;4.50;;;;;;;14.75;82.83;100279.08;102390;279;113889;-56
2023/07/12 01:44:26;;;;;;;7.80;4.10;;;;;;;14.76;82.98;100283.34;102398;279;96867;-57
2023/07/12 01:47:06;;;;;;;5.00;4.50;;;;;;;14.79;83.10;100283.17;102450;279;99142;-58
2023/07/12 01:49:43;;;;;;;5.20;4.70;;;;;;;14.78;83.04;100267.27;102446;279;120097;-57
2023/07/12 01:52:21;;;;;;;5.20;4.40;;;;;;;14.75;83.26;100260.23;102410;279;105352;-57
2023/07/12 01:54:58;;;;;;;7.40;4.90;;;;;;;14.73;83.21;100271.89;102367;279;114449;-57
2023/07/12 01:57:34;;;;;;;6.20;4.90;;;;;;;14.74;83.31;100277.21;102405;279;96276;-57
2023/07/12 02:00:11;;;;;;;9.20;4.50;;;;;;;14.73;83.16;100277.38;102221;279;98638;-57
2023/07/12 02:02:49;;;;;;;5.80;4.70;;;;;;;14.71;83.18;100284.89;102399;279;119042;-57
2023/07/12 02:05:28;;;;;;;7.00;5.10;;;;;;;14.69;83.27;100282.39;102357;272;105820;-57
2023/07/12 02:08:07;;;;;;;7.60;5.30;;;;;;;14.67;83.33;100271.02;102353;279;114693;-57
2023/07/12 02:10:44;;;;;;;5.80;5.10;;;;;;;14.63;83.48;100266.20;102431;279;96345;-57
2023/07/12 02:13:21;;;;;;;6.30;5.30;;;;;;;14.61;83.41;100272.82;102478;268;97940;-57
2023/07/12 02:16:00;;;;;;;6.70;5.30;;;;;;;14.61;83.55;100273.86;102283;281;118629;-56
2023/07/12 02:18:40;;;;;;;9.40;5.50;;;;;;;14.59;83.51;100266.60;102420;279;106772;-56
2023/07/12 02:21:17;;;;;;;6.70;5.30;;;;;;;14.60;83.83;100261.03;102425;279;115254;-57
2023/07/12 02:24:02;;;;;;;6.20;4.90;;;;;;;14.61;83.75;100261.02;102471;279;97120;-55
2023/07/12 02:26:46;;;;;;;7.00;5.20;;;;;;;14.64;83.78;100259.13;102517;279;97042;-57
2023/07/12 02:29:32;;;;;;;9.10;5.00;;;;;;;14.65;83.78;100258.16;102491;279;119899;-57
2023/07/12 02:32:08;;;;;;;7.00;5.40;;;;;;;14.64;83.78;100250.88;102555;279;104963;-55
2023/07/12 02:34:49;;;;;;;6.20;4.80;;;;;;;14.63;83.81;100245.62;102427;279;113369;-56
2023/07/12 02:37:28;;;;;;;7.70;5.50;;;;;;;14.65;83.95;100250.13;102447;279;97310;-56
2023/07/12 02:40:08;;;;;;;5.70;5.10;;;;;;;14.68;84.05;100247.14;102499;279;97960;-56
2023/07/12 02:42:48;;;;;;;7.20;5.00;;;;;;;14.72;84.07;100249.33;102416;279;119938;-56
2023/07/12 02:45:34;;;;;;;6.30;5.50;;;;;;;14.75;84.19;100247.16;102495;279;105471;-56
2023/07/12 02:48:10;;;;;;;10.70;5.90;;;;;;;14.82;84.12;100244.23;102387;279;114706;-55
2023/07/12 02:50:46;;;;;;;5.80;5.20;;;;;;;14.84;84.34;100237.39;102459;279;95300;-58
2023/07/12 02:53:22;;;;;;;10.70;4.80;;;;;;;14.87;84.30;100227.66;102412;279;97486;-57
2023/07/12 02:56:03;;;;;;;7.00;5.30;;;;;;;14.91;84.23;100224.41;102411;279;119853;-57
2023/07/12 02:58:44;;;;;;;7.70;5.50;;;;;;;14.97;84.30;100231.35;102456;279;104847;-56
2023/07/12 03:01:20;;;;;;;7.20;5.50;;;;;;;15.05;84.27;100240.11;102464;268;115310;-57
2023/07/12 03:04:08;;;;;;;6.90;5.80;;;;;;;15.15;84.19;100240.40;102447;279;97276;-57
2023/07/12 03:06:46;;;;;;;6.40;5.40;;;;;;;15.25;84.19;100238.88;102506;279;95418;-57
2023/07/12 03:09:24;;;;;;;6.50;5.40;;;;;;;15.35;84.17;100229.83;102471;279;120775;-56
2023/07/12 03:12:00;;;;;;;7.00;5.60;;;;;;;15.42;84.13;100228.92;102495;279;105096;-56
2023/07/12 03:14:38;;;;;;;7.40;5.10;;;;;;;15.48;84.14;100230.41;102480;279;113775;-56
2023/07/12 03:17:18;;;;;;;7.70;5.40;;;;;;;15.51;84.13;100233.55;102471;279;96452;-57
2023/07/12 03:19:56;;;;;;;6.30;5.20;;;;;;;15.59;84.04;100230.50;102425;279;96963;-56
2023/07/12 03:22:49;;;;;;;6.10;5.00;;;;;;;15.66;83.97;100230.72;102395;279;119077;-57
2023/07/12 03:25:26;;;;;;;8.20;5.90;;;;;;;15.70;83.93;100228.49;102478;279;106149;-57
2023/07/12 03:28:11;;;;;;;6.60;5.60;;;;;;;15.80;83.85;100231.09;102391;279;114293;-55
2023/07/12 03:30:59;;;;;;;7.30;5.50;;;;;;;15.98;83.91;100226.52;102396;279;96633;-56
2023/07/12 03:33:37;;;;;;;7.80;5.70;;;;;;;16.21;83.75;100219.98;102449;279;95579;-56
2023/07/12 03:36:19;;;;;;;6.90;5.30;;;;;;;16.58;83.15;100222.48;102423;279;120176;-56
2023/07/12 03:38:56;;;;;;;5.80;5.00;;;;;;;17.85;81.82;100224.23;102362;279;103475;-56
2023/07/12 03:41:32;;;;;;;5.70;4.80;;;;;;;19.37;79.95;100215.98;102442;279;113411;-56
2023/07/12 03:44:09;;;;;;;5.90;5.00;;;;;;;20.48;78.28;100217.52;102399;279;95251;-55
2023/07/12 03:46:48;;;;;;;5.40;4.40;;;;;;;21.30;76.64;100209.35;102502;279;97509;-55
2023/07/12 03:49:25;;;;;;;5.60;4.60;;;;;;;21.57;75.12;100203.63;102436;279;119230;-56
2023/07/12 03:52:08;;;;;;;6.30;4.70;;;;;;;22.01;74.16;100197.34;102484;279;106160;-56
2023/07/12 03:54:48;;;;;;;6.00;4.50;;;;;;;23.00;72.79;100191.16;102437;279;112951;-56
2023/07/12 03:57:23;;;;;;;5.30;4.80;;;;;;;24.16;70.98;100190.38;102482;279;92983;-58
2023/07/12 04:00:08;;;;;;;5.40;4.90;;;;;;;25.25;68.63;100181.67;102474;279;96604;-58
2023/07/12 04:02:45;;;;;;;6.00;5.10;;;;;;;26.22;66.18;100167.80;102489;279;119276;-56
2023/07/12 04:05:21;;;;;;;5.40;4.90;;;;;;;27.03;63.85;100155.05;102483;279;104618;-57
2023/07/12 04:08:00;;;;;;;7.30;4.90;;;;;;;26.81;62.17;100153.69;102438;279;114625;-59
2023/07/12 04:10:40;;;;;;;5.90;4.70;;;;;;;26.19;61.45;100151.73;102498;279;92961;-55
2023/07/12 04:13:24;;;;;;;5.60;4.70;;;;;;;26.72;60.39;100146.70;102434;279;97169;-56
2023/07/12 04:16:02;;;;;;;5.10;4.50;;;;;;;27.89;58.68;100148.48;102411;279;121481;-56
2023/07/12 04:18:40;;;;;;;5.00;4.50;;;;;;;28.94;56.83;100152.66;102447;279;105579;-56
2023/07/12 04:21:24;;;;;;;5.00;4.50;;;;;;;29.81;54.88;100146.20;102450;279;113578;-56
2023/07/12 04:24:08;;;;;;;5.40;4.90;;;;;;;30.41;52.42;100138.00;102426;279;95049;-57
2023/07/12 04:26:48;;;;;;;5.20;4.20;;;;;;;29.58;51.40;100138.33;102251;279;97470;-56
2023/07/12 04:29:25;;;;;;;4.90;4.50;;;;;;;28.02;51.95;100135.36;102459;279;120210;-55
2023/07/12 04:32:02;;;;;;;4.60;4.20;;;;;;;26.79;52.52;100128.21;102479;268;105159;-58
2023/07/12 04:34:45;;;;;;;5.20;4.60;;;;;;;25.91;53.32;100120.80;102461;279;113966;-58
2023/07/12 04:37:25;;;;;;;4.90;4.40;;;;;;;25.18;53.93;100121.14;102457;279;94609;-58
2023/07/12 04:40:07;;;;;;;5.70;4.50;;;;;;;24.83;54.67;100124.67;102515;279;97695;-58
2023/07/12 04:42:43;;;;;;;5.80;4.50;;;;;;;24.46;54.90;100126.81;102515;279;120828;-56
2023/07/12 04:45:31;;;;;;;7.50;4.30;;;;;;;24.10;55.37;100124.29;102477;279;103035;-56
2023/07/12 04:48:09;;;;;;;5.40;4.50;;;;;;;23.80;56.07;100124.80;102416;279;114754;-56
2023/07/12 04:50:50;;;;;;;5.10;4.60;;;;;;;23.67;56.34;100120.16;102496;279;94719;-56
2023/07/12 04:53:29;;;;;;;6.40;4.30;;;;;;;24.42;56.05;100118.27;102400;279;97883;-57
2023/07/12 04:56:05;;;;;;;5.60;4.90;;;;;;;25.07;55.22;100106.58;102430;279;120389;-56
2023/07/12 04:58:42;;;;;;;5.20;4.20;;;;;;;24.99;55.07;100109.72;102421;279;105163;-55
2023/07/12 05:01:21;;;;;;;5.20;4.40;;;;;;;25.99;54.91;100105.36;102243;281;113652;-57
2023/07/12 05:03:56;;;;;;;7.10;4.30;;;;;;;28.49;52.93;100109.80;102426;279;94877;-56
2023/07/12 05:06:35;;;;;;;5.80;4.10;;;;;;;30.56;50.61;100108.23;102490;279;97732;-56
2023/07/12 05:09:15;;;;;;;6.60;4.50;;;;;;;32.05;48.38;100103.73;102456;279;120304;-56
2023/07/12 05:11:52;;;;;;;7.20;4.80;;;;;;;33.06;46.08;100106.16;102498;279;105811;-57
2023/07/12 05:14:27;;;;;;;5.00;4.00;;;;;;;34.06;44.30;100106.46;102444;279;113770;-57
2023/07/12 05:17:05;;;;;;;4.50;4.00;;;;;;;34.62;42.83;100109.78;101973;279;666943;-55
2023/07/12 05:19:40;;;;;;;5.40;3.90;;;;;;;35.10;41.48;100112.70;102275;270;96804;-58
2023/07/12 05:22:18;;;;;;;4.30;3.80;;;;;;;35.77;40.08;100106.30;102527;279;119636;-55
2023/07/12 05:24:56;;;;;;;6.10;4.00;;;;;;;36.21;39.06;100105.98;102486;279;104139;-56
2023/07/12 05:27:38;;;;;;;5.40;3.50;;;;;;;36.71;37.32;100104.52;102502;279;114852;-57
2023/07/12 05:30:15;;;;;;;7.60;3.90;;;;;;;37.07;36.23;100105.91;102434;279;94192;-57
2023/07/12 05:32:55;;;;;;;6.40;3.90;;;;;;;37.25;35.38;100111.72;102417;279;97074;-57
2023/07/12 05:35:30;;;;;;;4.30;3.80;;;;;;;37.48;34.34;100116.73;102416;279;120604;-57
2023/07/12 05:38:08;;;;;;;4.40;3.70;;;;;;;37.90;33.76;100110.69;102437;279;105628;-56
2023/07/12 05:40:43;;;;;;;5.30;3.70;;;;;;;38.24;33.21;100102.73;102416;279;114123;-57
2023/07/12 05:43:25;;;;;;;5.50;3.90;;;;;;;38.56;32.82;100092.77;102341;279;94089;-57
2023/07/12 05:46:03;;;;;;;5.10;3.70;;;;;;;38.16;31.16;100093.99;102419;279;97561;-57
2023/07/12 05:48:40;;;;;;;5.90;4.50;;;;;;;38.17;31.25;100088.14;102393;279;119934;-55
2023/07/12 05:51:19;;;;;;;5.60;4.10;;;;;;;38.58;30.92;100081.35;102255;279;105823;-56
2023/07/12 05:53:55;;;;;;;4.20;3.60;;;;;;;39.08;30.01;100083.56;102328;276;113812;-56
2023/07/12 05:56:30;;;;;;;4.00;3.50;;;;;;;39.09;29.62;100079.30;102396;279;93457;-56
2023/07/12 05:59:07;;;;;;;5.10;3.50;;;;;;;39.10;29.42;100074.37;102409;279;97246;-55
2023/07/12 06:01:47;;;;;;;6.50;3.70;;;;;;;39.67;29.11;100077.04;102447;279;120614;-58
2023/07/12 06:04:26;;;;;;;4.40;3.50;;;;;;;39.37;28.72;100081.35;102458;279;105984;-58
2023/07/12 06:07:03;;;;;;;6.80;4.40;;;;;;;38.84;29.04;100087.34;102317;279;114164;-56
2023/07/12 06:09:51;;;;;;;4.10;3.70;;;;;;;38.72;29.25;100083.22;102419;279;93416;-56
2023/07/12 06:12:30;;;;;;;4.50;4.10;;;;;;;38.71;28.77;100085.88;102430;279;98574;-58
2023/07/12 06:15:08;;;;;;;4.40;3.90;;;;;;;38.52;28.76;100076.10;102439;279;121603;-57
2023/07/12 06:17:51;;;;;;;6.60;4.30;;;;;;;38.71;28.58;100069.90;102420;279;104998;-57
2023/07/12 06:20:33;;;;;;;4.90;3.60;;;;;;;38.79;28.28;100064.52;102369;280;114944;-59
2023/07/12 06:23:16;;;;;;;4.40;3.50;;;;;;;37.98;28.43;100064.69;102360;279;94991;-57
2023/07/12 06:26:07;;;;;;;5.30;3.90;;;;;;;37.63;29.28;100059.89;102384;279;97656;-64
2023/07/12 06:28:47;;;;;;;3.90;3.50;;;;;;;37.08;29.30;100059.08;102191;279;122075;-63
2023/07/12 06:31:25;;;;;;;5.40;4.10;;;;;;;37.41;28.66;100060.46;102295;279;106168;-62
2023/07/12 06:34:05;;;;;;;4.60;4.10;;;;;;;37.00;29.04;100065.60;102427;279;114338;-62
2023/07/12 06:36:41;;;;;;;5.90;3.90;;;;;;;37.06;29.12;100068.63;102457;279;93905;-63
2023/07/12 06:39:18;;;;;;;4.90;3.70;;;;;;;37.31;29.67;100069.96;102327;280;97499;-58
2023/07/12 06:41:55;;;;;;;4.90;3.60;;;;;;;37.90;29.10;100071.20;102405;279;119729;-57
2023/07/12 06:44:33;;;;;;;4.70;3.90;;;;;;;38.43;28.44;100067.52;102452;279;103482;-57
2023/07/12 06:47:08;;;;;;;4.80;4.30;;;;;;;38.91;27.99;100069.66;102447;268;113930;-57
2023/07/12 06:49:44;;;;;;;4.90;3.60;;;;;;;39.04;27.72;100069.48;102408;279;93727;-58
2023/07/12 06:52:18;;;;;;;4.60;3.60;;;;;;;39.10;27.56;100071.95;102459;268;96163;-58
2023/07/12 06:54:55;;;;;;;4.50;3.90;;;;;;;38.58;27.40;100065.38;102419;279;119871;-58
2023/07/12 06:57:30;;;;;;;5.80;3.80;;;;;;;38.89;27.63;100066.56;102434;279;105792;-57
2023/07/12 07:00:17;;;;;;;6.00;4.10;;;;;;;39.70;26.95;100063.89;102413;279;114676;-57
2023/07/12 07:02:52;;;;;;;5.40;4.10;;;;;;;39.54;26.12;100066.48;102398;279;93871;-58
2023/07/12 07:05:29;;;;;;;7.40;4.10;;;;;;;39.78;26.43;100065.48;102445;279;96810;-58
2023/07/12 07:08:11;;;;;;;4.10;3.50;;;;;;;40.82;25.61;100064.25;102204;279;123549;-56
2023/07/12 07:10:53;;;;;;;4.90;3.80;;;;;;;41.18;25.22;100057.63;102451;279;104720;-54
2023/07/12 07:13:29;;;;;;;4.10;3.70;;;;;;;41.29;24.92;100056.27;102451;267;112629;-55
2023/07/12 07:16:06;;;;;;;5.00;3.80;;;;;;;41.58;24.61;100051.65;102488;279;95315;-55
2023/07/12 07:18:46;;;;;;;6.30;4.00;;;;;;;42.00;24.33;100043.98;102470;279;97555;-55
2023/07/12 07:21:29;;;;;;;6.80;4.10;;;;;;;42.31;24.03;100035.46;102447;279;118546;-55
2023/07/12 07:24:08;;;;;;;5.40;3.90;;;;;;;42.17;23.52;100027.88;102474;279;106074;-56
2023/07/12 07:26:48;;;;;;;5.10;3.50;;;;;;;41.93;23.55;100024.95;102466;279;114390;-57
2023/07/12 07:29:28;;;;;;;5.20;3.60;;;;;;;41.81;23.16;100023.50;102435;279;93336;-57
2023/07/12 07:32:09;;;;;;;4.80;4.20;;;;;;;41.68;23.56;100025.86;102498;279;97549;-58
2023/07/12 07:34:49;;;;;;;5.60;3.70;;;;;;;41.70;23.61;100020.12;102463;279;120249;-58
2023/07/12 07:37:26;;;;;;;5.50;4.20;;;;;;;41.67;23.22;100023.04;102485;279;104187;-57
2023/07/12 07:40:03;;;;;;;5.00;3.80;;;;;;;41.95;23.29;100017.31;102400;279;114195;-58
2023/07/12 07:42:42;;;;;;;5.90;4.10;;;;;;;42.03;22.97;100015.50;102432;279;93784;-57
2023/07/12 07:45:20;;;;;;;4.20;3.80;;;;;;;41.98;22.80;100015.45;102445;279;96546;-57
2023/07/12 07:47:58;;;;;;;5.40;4.40;;;;;;;42.16;22.69;100012.15;102467;279;119725;-58
2023/07/12 07:50:35;;;;;;;4.80;3.60;;;;;;;42.32;22.36;100009.98;102272;279;104645;-56
2023/07/12 07:53:15;;;;;;;4.30;3.90;;;;;;;42.22;22.42;100006.44;102399;279;113338;-56
2023/07/12 07:55:54;;;;;;;6.30;3.50;;;;;;;42.33;22.19;100008.04;102401;279;92558;-58
2023/07/12 07:58:33;;;;;;;;;;;;;;;42.68;22.20;100003.48;102377;279;97248;-57
2023/07/12 08:01:13;;;;;;;5.40;3.70;;;;;;;42.87;21.99;100004.09;102436;279;121439;-58
2023/07/12 08:03:52;;;;;;;6.30;3.80;;;;;;;42.86;21.56;99999.06;102448;279;106274;-58
2023/07/12 08:06:35;;;;;;;3.50;3.20;;;;;;;42.28;21.67;99992.38;102237;281;114939;-59
2023/07/12 08:09:14;;;;;;;4.60;3.80;;;;;;;41.58;21.53;99992.72;102256;281;93936;-59
2023/07/12 08:11:55;;;;;;;4.50;3.40;;;;;;;40.45;21.81;99987.88;102305;281;97503;-56
2023/07/12 08:14:30;;;;;;;5.60;3.90;;;;;;;39.21;22.78;99985.98;102272;280;117903;-55
2023/07/12 08:17:05;;;;;;;4.30;3.70;;;;;;;39.36;23.50;99984.02;102322;281;104678;-56
2023/07/12 08:19:50;;;;;;;4.50;3.40;;;;;;;39.32;23.17;99982.52;102257;280;112458;-56
2023/07/12 08:22:29;;;;;;;4.10;3.70;;;;;;;39.02;23.68;99978.61;102222;281;94764;-56
2023/07/12 08:25:08;;;;;;;4.40;3.20;;;;;;;39.19;23.18;99979.68;102243;281;97465;-56
2023/07/12 08:27:45;;;;;;;5.00;3.40;;;;;;;39.08;23.67;99972.79;102248;281;118583;-56
2023/07/12 08:30:33;;;;;;;3.90;3.20;;;;;;;39.04;24.04;99974.44;102262;281;104427;-56
2023/07/12 08:33:07;;;;;;;4.20;3.10;;;;;;;38.27;23.71;99965.36;102208;281;113699;-56
2023/07/12 08:35:44;;;;;;;5.20;3.30;;;;;;;38.00;24.19;99959.95;102217;280;94525;-56
2023/07/12 08:38:23;;;;;;;3.70;3.40;;;;;;;38.40;24.24;99953.92;102251;281;96759;-57
2023/07/12 08:41:01;;;;;;;3.50;3.20;;;;;;;38.72;24.15;99950.73;102289;281;120672;-56
2023/07/12 08:43:43;;;;;;;4.00;3.50;;;;;;;38.56;23.96;99947.89;102213;280;105585;-55
2023/07/12 08:46:23;;;;;;;5.60;3.30;;;;;;;38.13;23.95;99946.56;102251;281;113568;-57
2023/07/12 08:49:06;;;;;;;3.50;2.60;;;;;;;37.52;24.01;99945.39;102204;280;93895;-58
2023/07/12 08:51:44;;;;;;;5.00;3.00;;;;;;;37.07;23.82;99942.57;102258;281;97296;-58
2023/07/12 08:54:34;;;;;;;3.90;3.10;;;;;;;36.76;24.37;99943.89;102254;280;120185;-58
2023/07/12 08:57:27;;;;;;;3.70;3.00;;;;;;;36.38;24.60;99943.55;102240;280;105223;-58
2023/07/12 09:00:17;;;;;;;6.20;3.10;;;;;;;36.10;24.40;99942.01;102264;280;112198;-58
2023/07/12 09:02:53;;;;;;;4.30;3.40;;;;;;;35.69;24.65;99935.42;102283;281;95673;-55
2023/07/12 09:05:32;;;;;;;4.10;3.20;;;;;;;35.41;24.88;99936.55;102424;279;96641;-56
2023/07/12 09:08:27;;;;;;;3.50;3.10;;;;;;;34.97;25.24;99933.84;102454;279;120641;-55
2023/07/12 09:11:17;;;;;;;4.40;3.30;;;;;;;34.67;25.93;99928.32;102465;279;104344;-57
2023/07/12 09:13:52;;;;;;;4.00;3.60;;;;;;;34.39;26.40;99921.14;102223;280;117105;-57
2023/07/12 09:16:33;;;;;;;3.90;3.00;;;;;;;34.20;26.44;99915.42;102470;279;94873;-56
2023/07/12 09:19:20;;;;;;;3.90;2.80;;;;;;;33.91;26.71;99906.05;102427;279;98176;-58
2023/07/12 09:21:58;;;;;;;5.20;3.00;;;;;;;33.76;27.13;99899.64;102506;279;120772;-56
2023/07/12 09:24:46;;;;;;;3.80;2.80;;;;;;;33.81;27.14;99891.69;102476;279;105139;-56
2023/07/12 09:27:29;;;;;;;4.80;3.60;;;;;;;33.68;27.17;99881.28;102454;279;116467;-56
2023/07/12 09:30:08;;;;;;;3.40;2.70;;;;;;;33.63;27.32;99880.02;102420;279;94640;-57
2023/07/12 09:32:49;;;;;;;3.60;3.30;;;;;;;33.74;27.72;99886.60;102437;279;97530;-58
2023/07/12 09:35:41;;;;;;;3.10;2.80;;;;;;;33.82;26.98;99887.38;102409;279;120524;-56
2023/07/12 09:38:25;;;;;;;3.60;3.20;;;;;;;33.95;27.05;99880.94;102400;279;105896;-58
2023/07/12 09:41:19;;;;;;;5.10;2.90;;;;;;;34.08;26.66;99876.27;102440;279;113902;-58
2023/07/12 09:43:58;;;;;;;3.60;2.70;;;;;;;34.11;26.69;99865.95;102378;279;94421;-58
2023/07/12 09:46:44;;;;;;;5.70;2.90;;;;;;;34.18;26.26;99859.52;102274;279;97642;-57
2023/07/12 09:49:23;;;;;;;3.90;3.50;;;;;;;34.09;26.19;99860.46;102349;279;119755;-56
2023/07/12 09:52:10;;;;;;;4.60;3.10;;;;;;;33.85;26.48;99863.13;102435;279;105524;-57
2023/07/12 09:54:54;;;;;;;3.40;2.80;;;;;;;33.80;26.49;99862.04;102397;279;114156;-58
2023/07/12 09:57:49;;;;;;;3.60;3.00;;;;;;;33.71;26.80;99858.08;102380;279;94289;-58
2023/07/12 10:00:34;;;;;;;4.10;3.00;;;;;;;33.54;26.61;99848.42;102401;279;96983;-58
2023/07/12 10:03:24;;;;;;;3.50;3.20;;;;;;;33.54;26.65;99849.29;102372;279;119344;-59
2023/07/12 10:06:22;;;;;;;4.60;3.10;;;;;;;33.54;26.82;99851.97;102384;279;104378;-55
2023/07/12 10:09:13;;;;;;;4.40;3.40;;;;;;;33.75;27.27;99848.09;102383;279;114270;-55
2023/07/12 10:12:00;;;;;;;4.70;3.70;;;;;;;34.12;27.35;99841.39;102372;279;94154;-57
2023/07/12 10:14:40;;;;;;;3.50;3.00;;;;;;;34.28;27.14;99836.47;102398;279;97551;-56
2023/07/12 10:17:31;;;;;;;4.50;3.90;;;;;;;34.58;27.12;99829.63;102414;279;121302;-56
2023/07/12 10:20:24;;;;;;;4.70;3.90;;;;;;;34.64;26.88;99823.38;102396;279;105510;-58
2023/07/12 10:23:11;;;;;;;4.90;3.80;;;;;;;34.49;26.63;99814.40;102408;279;114184;-57
2023/07/12 10:25:58;;;;;;;5.70;4.20;;;;;;;34.19;26.75;99804.65;102430;279;93608;-56
2023/07/12 10:28:45;;;;;;;4.40;3.20;;;;;;;33.97;26.79;99805.56;102456;280;96814;-58
2023/07/12 10:31:37;;;;;;;3.80;3.10;;;;;;;34.10;27.15;99798.48;102393;279;120374;-57
2023/07/12 10:34:28;;;;;;;4.20;3.80;;;;;;;34.30;27.35;99789.64;102443;279;105167;-58
2023/07/12 10:37:13;;;;;;;5.60;3.40;;;;;;;34.38;26.92;99795.85;102451;279;113549;-57
2023/07/12 10:39:50;;;;;;;4.30;3.40;;;;;;;34.27;26.72;99784.92;102458;279;92240;-58
2023/07/12 10:42:32;;;;;;;4.90;3.80;;;;;;;34.15;26.61;99779.55;102502;279;98400;-57
2023/07/12 10:45:17;;;;;;;3.90;3.30;;;;;;;33.80;26.54;99777.21;102445;279;120536;-56
2023/07/12 10:48:06;;;;;;;6.30;3.60;;;;;;;33.68;26.70;99776.58;102260;279;105037;-57
2023/07/12 10:50:56;;;;;;;4.50;3.40;;;;;;;33.84;27.00;99773.88;102387;268;114525;-66
2023/07/12 10:53:51;;;;;;;6.60;3.40;;;;;;;34.12;27.30;99768.72;102437;279;94733;-64
2023/07/12 10:56:37;;;;;;;5.50;3.70;;;;;;;34.14;27.08;99776.79;102478;279;98333;-60
2023/07/12 10:59:47;;;;;;;5.20;3.70;;;;;;;33.92;27.16;99775.77;102382;279;119413;-59
2023/07/12 11:02:30;;;;;;;5.60;3.20;;;;;;;33.75;26.94;99763.95;102387;279;104914;-56
2023/07/12 11:05:35;;;;;;;4.70;4.20;;;;;;;33.85;26.89;99751.48;102399;279;113677;-57
2023/07/12 11:08:41;;;;;;;4.90;3.70;;;;;;;34.00;26.95;99742.27;102415;279;95210;-58
2023/07/12 11:11:43;;;;;;;4.30;3.40;;;;;;;34.37;26.95;99742.44;102432;279;97478;-56
2023/07/12 11:14:47;;;;;;;4.80;3.90;;;;;;;34.63;26.65;99736.67;102396;279;120478;-56
2023/07/12 11:17:28;;;;;;;5.50;3.80;;;;;;;34.44;26.43;99731.30;102411;279;103914;-57
2023/07/12 11:20:22;;;;;;;5.30;3.80;;;;;;;34.56;26.36;99725.89;102370;279;112185;-58
2023/07/12 11:23:02;;;;;;;5.50;3.80;;;;;;;34.55;26.45;99728.70;102426;279;94984;-55
2023/07/12 11:26:20;;;;;;;5.90;3.90;;;;;;;34.67;26.44;99723.78;102413;279;96793;-58
2023/07/12 11:29:29;;;;;;;4.30;3.90;;;;;;;34.76;26.47;99717.00;102371;279;120298;-56
2023/07/12 11:32:23;;;;;;;5.60;3.60;;;;;;;34.65;26.32;99711.46;102413;279;105241;-58
2023/07/12 11:35:04;;;;;;;7.10;4.00;;;;;;;34.35;26.49;99701.45;102349;279;113835;-57
2023/07/12 11:37:46;;;;;;;6.80;4.60;;;;;;;34.11;26.40;99702.92;102399;279;92108;-62
2023/07/12 11:40:32;;;;;;;4.10;3.40;;;;;;;33.86;26.78;99698.58;102415;279;97500;-57
2023/07/12 11:43:38;;;;;;;6.00;4.30;;;;;;;33.58;27.00;99703.59;102370;279;120639;-57
2023/07/12 11:46:24;;;;;;;5.40;4.30;;;;;;;33.42;27.08;99708.58;102389;279;105675;-57
2023/07/12 11:49:06;;;;;;;7.00;4.80;;;;;;;33.44;27.22;99704.16;102396;279;114608;-56
2023/07/12 11:51:42;;;;;;;4.70;4.30;;;;;;;33.53;27.46;99700.73;102401;279;94040;-57
2023/07/12 11:54:27;;;;;;;6.10;4.50;;;;;;;33.71;27.44;99692.03;102415;279;98425;-57
2023/07/12 11:57:09;;;;;;;5.00;4.50;;;;;;;33.85;27.56;99685.10;102516;279;118394;-55
2023/07/12 11:59:47;;;;;;;5.50;4.40;;;;;;;33.73;27.60;99682.56;102427;279;104677;-55
2023/07/12 12:02:30;;;;;;;4.90;4.40;;;;;;;33.68;27.73;99679.04;102457;279;112915;-57
2023/07/12 12:05:04;;;;;;;5.60;4.40;;;;;;;33.49;27.97;99678.10;102438;279;94010;-57
2023/07/12 12:07:45;;;;;;;6.70;4.60;;;;;;;33.44;28.18;99683.34;102458;279;96634;-55
2023/07/12 12:10:27;;;;;;;4.80;4.30;;;;;;;33.41;28.30;99690.30;102464;279;121601;-56
2023/07/12 12:13:17;;;;;;;4.70;4.10;;;;;;;33.28;28.36;99704.66;102236;279;104304;-56
2023/07/12 12:16:07;;;;;;;5.70;4.70;;;;;;;33.02;29.16;99714.21;102423;279;114474;-56
2023/07/12 12:18:53;;;;;;;6.00;4.60;;;;;;;32.76;29.60;99717.41;102388;279;93956;-55
2023/07/12 12:21:30;;;;;;;5.20;4.10;;;;;;;32.61;29.63;99719.82;102450;279;97530;-64
2023/07/12 12:24:21;;;;;;;7.50;4.60;;;;;;;32.48;29.93;99719.64;102435;279;119061;-63
2023/07/12 12:27:24;;;;;;;6.10;4.50;;;;;;;32.46;30.10;99719.48;102304;281;104393;-62
2023/07/12 12:30:30;;;;;;;5.40;4.80;;;;;;;32.38;30.45;99722.41;102401;268;113487;-62
2023/07/12 12:33:30;;;;;;;8.30;5.80;;;;;;;32.26;30.68;99724.89;102160;281;93898;-62